Time;durP1;ratioP1;P1;durP2;ratioP2;P2;SDS_P1;SDS_P2;PMS_P1;PMS_P2;Temp;Humidity;BMP_temperature;BMP_pressure;BME280_temperature;BME280_humidity;BME280_pressure;Samples;Min_cycle;Max_cycle;Signal;HPM_P1;HPM_P2
2022/12/14 00:00:33;;;;;;;106.53;45.22;;;-3.40;99.90;;;;;;5054689;28;20531;-74
2022/12/14 00:02:59;;;;;;;109.32;45.67;;;-3.40;99.90;;;;;;5054750;28;20144;-74
2022/12/14 00:05:26;;;;;;;109.82;47.15;;;-3.40;99.90;;;;;;5054499;28;20396;-74
2022/12/14 00:07:52;;;;;;;103.68;45.88;;;-3.50;99.90;;;;;;5055693;28;20053;-74
2022/12/14 00:10:19;;;;;;;100.20;44.30;;;-3.50;99.90;;;;;;5054413;28;20060;-74
2022/12/14 00:12:45;;;;;;;90.07;39.40;;;-3.60;99.90;;;;;;5055555;28;20400;-74
2022/12/14 00:15:11;;;;;;;84.88;38.25;;;-3.50;99.90;;;;;;5055684;28;20477;-74
2022/12/14 00:17:36;;;;;;;85.10;36.55;;;-3.60;99.90;;;;;;5054501;28;20041;-74
2022/12/14 00:20:03;;;;;;;78.75;35.88;;;-3.60;99.90;;;;;;5055579;28;20361;-74
2022/12/14 00:22:28;;;;;;;89.20;38.88;;;-3.60;99.90;;;;;;5054285;28;20509;-74
2022/12/14 00:24:54;;;;;;;95.70;43.03;;;-3.60;99.90;;;;;;5055522;28;20115;-74
2022/12/14 00:27:20;;;;;;;104.15;46.20;;;-3.70;99.90;;;;;;5054352;28;20041;-74
2022/12/14 00:29:45;;;;;;;87.95;39.50;;;-3.60;99.90;;;;;;5053887;28;20045;-74
2022/12/14 00:32:11;;;;;;;91.95;39.13;;;-3.60;99.90;;;;;;5053971;28;20127;-74
2022/12/14 00:34:36;;;;;;;88.35;39.22;;;-3.60;99.90;;;;;;5054159;28;20098;-74
2022/12/14 00:37:02;;;;;;;89.35;39.58;;;-3.60;99.90;;;;;;5054161;28;20495;-74
2022/12/14 00:39:28;;;;;;;92.10;38.70;;;-3.70;99.90;;;;;;5054154;28;20481;-74
2022/12/14 00:41:53;;;;;;;89.53;36.97;;;-3.60;99.90;;;;;;5053975;28;20110;-74
2022/12/14 00:44:20;;;;;;;80.32;36.78;;;-3.70;99.90;;;;;;5053860;28;20451;-75
2022/12/14 00:46:45;;;;;;;88.90;38.40;;;-3.70;99.90;;;;;;5052826;28;20067;-74
2022/12/14 00:49:11;;;;;;;84.80;37.95;;;-3.70;99.90;;;;;;5053439;28;20128;-75
2022/12/14 00:51:37;;;;;;;85.68;40.40;;;-3.70;99.90;;;;;;5055040;28;20052;-75
2022/12/14 00:54:03;;;;;;;91.53;42.53;;;-3.70;99.90;;;;;;5054975;28;20041;-75
2022/12/14 00:56:29;;;;;;;89.65;39.38;;;-3.70;99.90;;;;;;5053355;28;20091;-75
2022/12/14 00:58:54;;;;;;;86.25;38.22;;;-3.80;99.90;;;;;;5053831;28;20049;-75
2022/12/14 01:01:20;;;;;;;85.93;39.15;;;-3.80;99.90;;;;;;5054779;28;20473;-75
2022/12/14 01:03:47;;;;;;;93.65;40.45;;;-3.80;99.90;;;;;;5054790;28;20069;-75
2022/12/14 01:06:19;;;;;;;77.15;36.15;;;-3.80;99.90;;;;;;5053409;28;20553;-75
2022/12/14 01:08:45;;;;;;;88.53;39.30;;;-4.00;99.90;;;;;;5053433;28;20381;-75
2022/12/14 01:11:11;;;;;;;83.43;37.63;;;-3.90;99.90;;;;;;5053238;28;20124;-75
2022/12/14 01:13:38;;;;;;;91.25;37.20;;;-3.90;99.90;;;;;;5053111;28;20055;-75
2022/12/14 01:16:13;;;;;;;81.60;36.30;;;-3.90;99.90;;;;;;5053342;28;20512;-74
2022/12/14 01:18:40;;;;;;;88.63;38.55;;;-4.00;99.90;;;;;;5053390;28;20076;-75
2022/12/14 01:21:12;;;;;;;82.88;37.58;;;-4.00;99.90;;;;;;5053091;28;20045;-75
2022/12/14 01:23:37;;;;;;;88.22;38.40;;;-4.00;99.90;;;;;;5052765;28;20057;-75
2022/12/14 01:26:03;;;;;;;90.30;38.20;;;-4.10;99.90;;;;;;5053361;28;20051;-75
2022/12/14 01:28:29;;;;;;;93.57;37.33;;;-4.10;99.90;;;;;;5054278;28;20518;-75
2022/12/14 01:30:54;;;;;;;93.47;37.28;;;-4.20;99.90;;;;;;5054200;28;20476;-75
2022/12/14 01:33:20;;;;;;;89.65;39.55;;;-4.10;99.90;;;;;;5053141;28;20041;-75
2022/12/14 01:35:46;;;;;;;88.97;38.03;;;-4.10;99.90;;;;;;5053047;28;20033;-75
2022/12/14 01:38:11;;;;;;;82.28;37.03;;;-4.20;99.90;;;;;;5052831;28;20451;-75
2022/12/14 01:40:37;;;;;;;84.43;39.40;;;-4.20;99.90;;;;;;5052595;28;20072;-75
2022/12/14 01:43:03;;;;;;;88.30;37.58;;;-4.20;99.90;;;;;;5052984;28;20049;-75
2022/12/14 01:45:28;;;;;;;83.97;36.03;;;-4.30;99.90;;;;;;5052537;28;20404;-75
2022/12/14 01:48:00;;;;;;;83.07;36.22;;;-4.30;99.90;;;;;;5052926;28;20098;-75
2022/12/14 01:50:26;;;;;;;80.22;34.30;;;-4.40;99.90;;;;;;5054030;28;20382;-75
2022/12/14 01:52:57;;;;;;;85.20;35.78;;;-4.40;99.90;;;;;;5053782;28;20477;-75
2022/12/14 01:55:36;;;;;;;82.18;35.88;;;-4.50;99.90;;;;;;5054152;28;20049;-75
2022/12/14 01:58:11;;;;;;;79.63;36.08;;;-4.40;99.90;;;;;;5053631;28;20061;-75
2022/12/14 02:00:37;;;;;;;86.05;35.65;;;-4.50;99.90;;;;;;5053860;28;20091;-75
2022/12/14 02:03:08;;;;;;;89.00;38.20;;;-4.60;99.90;;;;;;5052756;28;20106;-75
2022/12/14 02:05:36;;;;;;;83.47;35.17;;;-4.50;99.90;;;;;;5052522;28;20451;-75
2022/12/14 02:08:03;;;;;;;90.03;38.33;;;-4.50;99.90;;;;;;5052523;28;20049;-75
2022/12/14 02:10:31;;;;;;;79.53;35.28;;;-4.60;99.90;;;;;;5052561;28;20143;-75
2022/12/14 02:13:03;;;;;;;89.88;37.25;;;-4.60;99.90;;;;;;5052201;28;20045;-75
2022/12/14 02:15:29;;;;;;;82.40;35.22;;;-4.60;99.90;;;;;;5052336;28;20052;-75
2022/12/14 02:17:56;;;;;;;83.25;36.17;;;-4.60;99.90;;;;;;5052215;28;20052;-75
2022/12/14 02:20:26;;;;;;;86.45;35.08;;;-4.60;99.90;;;;;;5052347;28;20051;-75
2022/12/14 02:23:15;;;;;;;91.88;35.50;;;-4.70;99.90;;;;;;5051979;28;20124;-75
2022/12/14 02:26:15;;;;;;;82.07;34.05;;;-4.80;99.90;;;;;;5051650;28;20063;-75
2022/12/14 02:28:59;;;;;;;80.75;34.35;;;-4.80;99.90;;;;;;5052941;28;20037;-74
2022/12/14 02:31:40;;;;;;;87.60;35.10;;;-4.80;99.90;;;;;;5052223;28;20049;-75
2022/12/14 02:34:25;;;;;;;88.60;34.90;;;-4.80;99.90;;;;;;5052259;28;20105;-75
2022/12/14 02:36:59;;;;;;;86.00;34.40;;;-4.90;99.90;;;;;;5052232;28;20045;-75
2022/12/14 02:39:45;;;;;;;84.68;35.78;;;-4.90;99.90;;;;;;5052240;28;20087;-75
2022/12/14 02:42:14;;;;;;;87.22;35.90;;;-4.90;99.90;;;;;;5052265;28;20049;-75
2022/12/14 02:45:24;;;;;;;84.05;35.92;;;-4.90;99.90;;;;;;5052085;28;20393;-75
2022/12/14 02:47:58;;;;;;;82.93;36.13;;;-5.00;99.90;;;;;;4995073;28;20049;-75
2022/12/14 02:50:48;;;;;;;73.47;33.05;;;-4.90;99.90;;;;;;5046951;28;20127;-75
2022/12/14 02:53:13;;;;;;;87.18;34.83;;;-4.90;99.90;;;;;;5052029;28;20053;-75
2022/12/14 02:55:44;;;;;;;86.93;35.35;;;-5.00;99.90;;;;;;5051810;28;20131;-75
2022/12/14 02:58:16;;;;;;;84.95;35.50;;;-5.00;99.90;;;;;;5051815;28;20041;-75
2022/12/14 03:00:42;;;;;;;88.57;37.97;;;-5.00;99.90;;;;;;5052676;28;20122;-75
2022/12/14 03:03:08;;;;;;;81.85;34.58;;;-5.00;99.90;;;;;;5052117;28;20388;-75
2022/12/14 03:05:34;;;;;;;93.85;37.38;;;-5.00;99.90;;;;;;5051858;28;20469;-75
2022/12/14 03:08:03;;;;;;;90.93;36.05;;;-5.00;99.90;;;;;;5052037;28;20103;-75
2022/12/14 03:10:47;;;;;;;92.30;36.75;;;-5.00;99.90;;;;;;5052730;28;20087;-74
2022/12/14 03:13:32;;;;;;;90.20;37.05;;;-4.90;99.90;;;;;;5055528;28;20041;-75
2022/12/14 03:16:22;;;;;;;86.35;35.75;;;-4.80;99.90;;;;;;5055758;28;20037;-75
2022/12/14 03:18:55;;;;;;;93.70;36.67;;;-4.80;99.90;;;;;;5055420;28;20091;-75
2022/12/14 03:21:26;;;;;;;90.93;35.28;;;-4.80;99.90;;;;;;5055332;28;20388;-75
2022/12/14 03:23:56;;;;;;;92.20;37.00;;;-4.80;99.90;;;;;;5055380;28;20068;-75
2022/12/14 03:26:28;;;;;;;78.53;36.03;;;-4.80;99.90;;;;;;5055591;28;20041;-75
2022/12/14 03:28:59;;;;;;;92.65;35.33;;;-4.80;99.90;;;;;;5055229;28;20051;-75
2022/12/14 03:31:42;;;;;;;83.20;33.78;;;-4.80;99.90;;;;;;5055041;28;20053;-75
2022/12/14 03:34:12;;;;;;;90.63;36.73;;;-4.80;99.90;;;;;;5055441;28;20044;-74
2022/12/14 03:36:48;;;;;;;80.82;35.58;;;-4.70;99.90;;;;;;5055115;28;20037;-76
2022/12/14 03:39:20;;;;;;;83.93;33.35;;;-4.70;99.90;;;;;;5055127;28;20123;-76
2022/12/14 03:41:56;;;;;;;85.78;36.08;;;-4.80;99.90;;;;;;5054936;28;20036;-76
2022/12/14 03:44:38;;;;;;;86.68;34.13;;;-4.70;99.90;;;;;;5055270;28;20041;-76
2022/12/14 03:47:23;;;;;;;86.55;34.33;;;-4.80;99.90;;;;;;5054966;28;20041;-77
2022/12/14 03:50:13;;;;;;;97.95;36.40;;;-4.70;99.90;;;;;;5054971;28;20090;-76
2022/12/14 03:52:52;;;;;;;88.18;33.88;;;-4.80;99.90;;;;;;5054716;28;20131;-76
2022/12/14 03:55:28;;;;;;;88.85;36.28;;;-4.80;99.90;;;;;;5055062;28;20384;-76
2022/12/14 03:58:12;;;;;;;93.95;35.95;;;-4.70;99.90;;;;;;5054702;28;20044;-76
2022/12/14 04:01:20;;;;;;;86.88;35.45;;;-4.70;99.90;;;;;;5054844;28;20103;-76
2022/12/14 04:03:57;;;;;;;91.22;34.55;;;-4.70;99.90;;;;;;5054343;28;20595;-76
2022/12/14 04:06:52;;;;;;;93.13;36.60;;;-4.60;99.90;;;;;;5054913;28;20067;-76
2022/12/14 04:09:26;;;;;;;90.03;33.13;;;-4.70;99.90;;;;;;5054492;28;20112;-76
2022/12/14 04:21:08;;;;;;;167.45;61.90;;;-4.60;99.90;;;;;;5053979;28;20064;-76
2022/12/14 04:26:32;;;;;;;137.27;51.13;;;-4.60;99.90;;;;;;5054205;28;20436;-76
2022/12/14 04:31:54;;;;;;;111.28;40.05;;;-4.60;99.90;;;;;;5053913;28;20057;-76
2022/12/14 04:34:23;;;;;;;112.10;48.65;;;-4.60;99.90;;;;;;5054017;28;20051;-76
2022/12/14 04:36:55;;;;;;;153.48;63.58;;;-4.70;99.90;;;;;;5053953;28;20495;-76
2022/12/14 04:39:33;;;;;;;175.20;73.53;;;-4.60;99.90;;;;;;5054313;28;20392;-76
2022/12/14 04:42:01;;;;;;;153.45;68.45;;;-4.70;99.90;;;;;;5053766;28;20076;-76
2022/12/14 04:44:35;;;;;;;130.52;60.58;;;-4.70;99.90;;;;;;5054992;28;20059;-76
2022/12/14 04:47:04;;;;;;;127.32;56.30;;;-4.70;99.90;;;;;;5054034;28;20055;-76
2022/12/14 04:49:50;;;;;;;130.90;62.92;;;-4.70;99.90;;;;;;5053740;28;20408;-76
2022/12/14 04:52:25;;;;;;;135.13;60.47;;;-4.80;99.90;;;;;;5053718;28;20056;-76
2022/12/14 04:55:06;;;;;;;112.78;49.22;;;-4.80;99.90;;;;;;5053892;28;20052;-76
2022/12/14 04:57:50;;;;;;;108.45;41.90;;;-4.90;99.90;;;;;;5053630;28;20235;-76
2022/12/14 05:00:15;;;;;;;109.65;39.75;;;-4.80;99.90;;;;;;5053640;28;20052;-76
2022/12/14 05:02:59;;;;;;;87.35;36.10;;;-4.80;99.90;;;;;;5053604;28;20098;-76
2022/12/14 05:05:43;;;;;;;102.03;38.90;;;-4.80;99.90;;;;;;5053410;28;20048;-76
2022/12/14 05:08:26;;;;;;;89.30;34.70;;;-4.80;99.90;;;;;;5053708;28;20044;-76
2022/12/14 05:11:21;;;;;;;90.63;37.60;;;-4.80;99.90;;;;;;5053328;28;20049;-76
2022/12/14 05:13:49;;;;;;;100.03;40.58;;;-4.80;99.90;;;;;;5054183;28;20110;-76
2022/12/14 05:16:20;;;;;;;90.95;34.67;;;-4.90;99.90;;;;;;5053236;28;20087;-76
2022/12/14 05:18:46;;;;;;;91.40;35.67;;;-4.90;99.90;;;;;;5054545;28;20106;-76
2022/12/14 05:21:45;;;;;;;93.60;36.97;;;-4.90;99.90;;;;;;5054437;28;20412;-76
2022/12/14 05:24:01;;;;;;;91.55;36.17;;;-4.90;99.90;;;;;;5054087;28;20053;-76
2022/12/14 05:26:27;;;;;;;93.28;35.75;;;-4.90;99.90;;;;;;5053176;28;20049;-76
2022/12/14 05:28:53;;;;;;;96.25;36.95;;;-4.90;99.90;;;;;;5054223;28;20052;-76
2022/12/14 05:31:19;;;;;;;93.38;35.42;;;-4.90;99.90;;;;;;5053995;28;20036;-76
2022/12/14 05:33:44;;;;;;;92.90;35.25;;;-4.90;99.90;;;;;;5053675;28;20041;-77
2022/12/14 05:36:10;;;;;;;90.57;34.78;;;-4.90;99.90;;;;;;5053923;28;20588;-76
2022/12/14 05:38:36;;;;;;;94.70;34.22;;;-5.00;99.90;;;;;;5054245;28;20492;-76
2022/12/14 05:41:01;;;;;;;79.75;31.92;;;-5.00;99.90;;;;;;5053950;28;20072;-76
2022/12/14 05:43:30;;;;;;;84.60;33.83;;;-5.10;99.90;;;;;;5053043;28;20056;-76
2022/12/14 05:45:59;;;;;;;87.65;33.20;;;-5.20;99.90;;;;;;5054497;28;20048;-76
2022/12/14 05:48:25;;;;;;;93.85;34.60;;;-5.20;99.90;;;;;;5053909;28;20179;-77
2022/12/14 05:50:51;;;;;;;81.07;32.42;;;-5.20;99.90;;;;;;5053732;28;20124;-76
2022/12/14 05:53:17;;;;;;;85.45;33.33;;;-5.20;99.90;;;;;;5053707;28;20044;-76
2022/12/14 05:55:47;;;;;;;88.68;31.77;;;-5.10;99.90;;;;;;5053927;28;20137;-76
2022/12/14 05:58:12;;;;;;;93.47;33.72;;;-5.20;99.90;;;;;;5053841;28;20068;-76
2022/12/14 06:00:38;;;;;;;86.13;32.80;;;-5.10;99.90;;;;;;5053779;28;20095;-76
2022/12/14 06:03:05;;;;;;;84.45;31.75;;;-5.20;99.90;;;;;;5053467;28;20048;-76
2022/12/14 06:05:30;;;;;;;82.25;32.92;;;-5.10;99.90;;;;;;5052543;28;20480;-76
2022/12/14 06:07:56;;;;;;;97.95;34.58;;;-5.10;99.90;;;;;;5053762;28;20095;-76
2022/12/14 06:10:22;;;;;;;104.97;35.42;;;-5.10;99.90;;;;;;5053668;28;20045;-76
2022/12/14 06:12:48;;;;;;;88.60;33.95;;;-5.10;99.90;;;;;;5053563;28;20048;-76
2022/12/14 06:15:13;;;;;;;90.72;34.47;;;-5.10;99.90;;;;;;5053659;28;20048;-76
2022/12/14 06:17:45;;;;;;;93.60;34.08;;;-5.10;99.90;;;;;;5052631;28;20047;-76
2022/12/14 06:20:12;;;;;;;103.97;36.47;;;-5.00;99.90;;;;;;5053623;28;20045;-76
2022/12/14 06:22:39;;;;;;;89.63;34.50;;;-5.00;99.90;;;;;;5053298;28;20057;-76
2022/12/14 06:25:07;;;;;;;85.90;33.75;;;-4.90;99.90;;;;;;5052480;28;20044;-76
2022/12/14 06:27:32;;;;;;;98.25;35.35;;;-5.00;99.90;;;;;;5052185;28;20102;-76
2022/12/14 06:29:58;;;;;;;112.18;40.35;;;-5.00;99.90;;;;;;5052181;28;20045;-76
2022/12/14 06:32:24;;;;;;;131.57;46.33;;;-5.00;99.90;;;;;;5052057;28;20049;-76
2022/12/14 06:34:50;;;;;;;106.45;39.15;;;-5.00;99.90;;;;;;5052044;28;20174;-76
2022/12/14 06:37:16;;;;;;;97.22;36.15;;;-5.00;99.90;;;;;;5052049;28;20091;-76
2022/12/14 06:39:42;;;;;;;94.20;35.63;;;-5.00;99.90;;;;;;5052343;28;20431;-76
2022/12/14 06:42:08;;;;;;;110.65;40.92;;;-5.10;99.90;;;;;;5053601;28;20536;-76
2022/12/14 06:44:34;;;;;;;108.38;42.67;;;-5.00;99.90;;;;;;5053326;28;20037;-76
2022/12/14 06:46:59;;;;;;;105.00;38.30;;;-5.00;99.90;;;;;;5056849;28;20045;-76
2022/12/14 06:49:25;;;;;;;106.93;36.78;;;-5.00;99.90;;;;;;5057206;28;20099;-76
2022/12/14 06:51:51;;;;;;;99.40;35.20;;;-5.00;99.90;;;;;;5055835;28;20056;-76
2022/12/14 06:54:18;;;;;;;90.30;32.65;;;-5.00;99.90;;;;;;5056063;28;20048;-76
2022/12/14 06:56:45;;;;;;;91.25;32.20;;;-5.00;99.90;;;;;;5055946;28;20056;-76
2022/12/14 06:59:12;;;;;;;100.88;36.70;;;-5.00;99.90;;;;;;5057169;28;20041;-76
2022/12/14 07:01:38;;;;;;;102.00;38.25;;;-5.00;99.90;;;;;;5055927;28;20053;-76
2022/12/14 07:04:05;;;;;;;88.53;34.10;;;-5.00;99.90;;;;;;5055714;28;20123;-76
2022/12/14 07:06:34;;;;;;;100.95;36.25;;;-5.10;99.90;;;;;;5056887;28;20578;-76
2022/12/14 07:09:00;;;;;;;91.68;36.35;;;-5.10;99.90;;;;;;5056988;28;20029;-76
2022/12/14 07:11:28;;;;;;;99.68;37.55;;;-5.10;99.90;;;;;;5056923;28;20548;-76
2022/12/14 07:13:55;;;;;;;96.88;34.67;;;-5.10;99.90;;;;;;5056810;28;20048;-76
2022/12/14 07:16:23;;;;;;;86.57;33.53;;;-5.20;99.90;;;;;;5057061;28;20460;-76
2022/12/14 07:18:50;;;;;;;80.75;31.75;;;-5.10;99.90;;;;;;5055601;28;20120;-76
2022/12/14 07:21:18;;;;;;;92.28;32.88;;;-5.20;99.90;;;;;;5055679;28;20493;-76
2022/12/14 07:23:45;;;;;;;84.88;33.65;;;-5.10;99.90;;;;;;5055224;28;20087;-76
2022/12/14 07:26:17;;;;;;;89.57;31.77;;;-5.10;99.90;;;;;;5055549;28;20049;-76
2022/12/14 07:28:44;;;;;;;82.80;32.20;;;-5.20;99.90;;;;;;5055184;28;20052;-76
2022/12/14 07:31:13;;;;;;;98.18;32.97;;;-5.10;99.90;;;;;;5055186;28;20091;-76
2022/12/14 07:33:38;;;;;;;93.65;32.60;;;-5.20;99.90;;;;;;5054446;28;20062;-76
2022/12/14 07:36:09;;;;;;;90.95;32.63;;;-5.20;99.90;;;;;;5054560;28;20041;-76
2022/12/14 07:38:36;;;;;;;93.55;35.70;;;-5.20;99.90;;;;;;5055064;28;20045;-76
2022/12/14 07:41:08;;;;;;;92.28;32.97;;;-5.10;99.90;;;;;;5054855;28;20041;-76
2022/12/14 07:43:34;;;;;;;82.32;29.15;;;-5.20;99.90;;;;;;5056378;28;20045;-76
2022/12/14 07:46:02;;;;;;;93.15;33.13;;;-5.10;99.90;;;;;;5056166;28;20102;-76
2022/12/14 07:48:29;;;;;;;89.40;33.88;;;-5.10;99.90;;;;;;5055939;28;20049;-76
2022/12/14 07:50:59;;;;;;;81.55;28.88;;;-5.00;99.90;;;;;;5054906;28;20485;-76
2022/12/14 07:53:25;;;;;;;78.80;30.35;;;-5.00;99.90;;;;;;5055791;28;20405;-77
2022/12/14 07:55:50;;;;;;;78.10;28.73;;;-5.00;99.90;;;;;;5055469;28;20448;-77
2022/12/14 07:58:16;;;;;;;75.90;30.00;;;-5.00;99.90;;;;;;5055945;28;20045;-77
2022/12/14 08:00:42;;;;;;;94.05;32.60;;;-5.00;99.90;;;;;;5055811;28;20049;-80
2022/12/14 08:03:07;;;;;;;98.30;36.00;;;-5.00;99.90;;;;;;5046944;28;20124;-77
2022/12/14 08:05:33;;;;;;;156.73;54.92;;;-5.00;99.90;;;;;;5035658;28;20080;-77
2022/12/14 08:07:59;;;;;;;209.32;79.43;;;-5.00;99.90;;;;;;5035421;28;20055;-76
2022/12/14 08:10:24;;;;;;;219.32;78.45;;;-5.10;99.90;;;;;;5034177;28;20087;-77
2022/12/14 08:12:50;;;;;;;144.93;57.63;;;-5.00;99.90;;;;;;5035589;28;20049;-76
2022/12/14 08:15:15;;;;;;;129.00;53.00;;;-5.00;99.90;;;;;;5035199;28;20049;-77
2022/12/14 08:17:41;;;;;;;149.07;55.00;;;-5.10;99.90;;;;;;5035541;28;20068;-76
2022/12/14 08:20:07;;;;;;;163.43;63.42;;;-5.00;99.90;;;;;;5035245;28;20045;-76
2022/12/14 08:22:33;;;;;;;144.95;56.00;;;-5.10;99.90;;;;;;5033796;28;20053;-77
2022/12/14 08:24:59;;;;;;;122.13;44.00;;;-5.10;99.90;;;;;;5035183;28;20429;-76
2022/12/14 08:27:24;;;;;;;112.22;42.78;;;-5.00;99.90;;;;;;5035173;28;20045;-76
2022/12/14 08:29:50;;;;;;;107.07;39.53;;;-5.00;99.90;;;;;;5035069;28;20053;-77
2022/12/14 08:32:16;;;;;;;102.53;40.03;;;-5.00;99.90;;;;;;5035198;28;20045;-82
2022/12/14 08:34:41;;;;;;;161.32;56.35;;;-4.90;99.90;;;;;;5033734;28;20045;-77
2022/12/14 08:37:07;;;;;;;193.35;63.90;;;-4.90;99.90;;;;;;5033953;28;20042;-77
2022/12/14 08:39:32;;;;;;;175.43;52.95;;;-4.90;99.90;;;;;;5033909;28;20586;-75
2022/12/14 08:41:58;;;;;;;133.60;48.03;;;-4.90;99.90;;;;;;5035045;28;20049;-76
2022/12/14 08:44:24;;;;;;;144.38;49.25;;;-4.80;99.90;;;;;;5035105;28;20037;-76
2022/12/14 08:46:49;;;;;;;168.88;51.97;;;-4.70;99.90;;;;;;5034823;28;20400;-76
2022/12/14 08:49:15;;;;;;;155.18;48.35;;;-4.70;99.90;;;;;;5033488;28;20045;-76
2022/12/14 08:51:41;;;;;;;114.45;36.97;;;-4.60;99.90;;;;;;5034838;28;20042;-76
2022/12/14 08:54:06;;;;;;;123.18;38.05;;;-4.60;99.90;;;;;;5034516;28;20068;-76
2022/12/14 08:56:32;;;;;;;95.57;35.95;;;-4.50;99.90;;;;;;5033366;28;20038;-77
2022/12/14 08:58:57;;;;;;;84.03;30.58;;;-4.50;99.90;;;;;;5034574;28;20049;-78
2022/12/14 09:01:28;;;;;;;95.57;32.90;;;-4.40;99.90;;;;;;5034558;28;20045;-77
2022/12/14 09:03:54;;;;;;;118.30;40.67;;;-4.30;99.90;;;;;;5034747;28;20128;-78
2022/12/14 09:06:22;;;;;;;118.65;36.28;;;-4.30;99.90;;;;;;5034245;28;20076;-77
2022/12/14 09:08:49;;;;;;;120.75;36.58;;;-4.20;99.90;;;;;;5033477;28;20424;-78
2022/12/14 09:11:16;;;;;;;121.70;43.58;;;-4.10;99.90;;;;;;5032902;28;20478;-76
2022/12/14 09:13:42;;;;;;;111.18;42.80;;;-4.10;99.90;;;;;;5034320;28;20116;-78
2022/12/14 09:16:12;;;;;;;106.80;41.45;;;-4.00;99.90;;;;;;5035930;28;20041;-79
2022/12/14 09:18:38;;;;;;;98.22;38.20;;;-3.90;99.90;;;;;;5052070;28;20543;-78
2022/12/14 09:21:04;;;;;;;74.22;29.77;;;-3.90;99.90;;;;;;5052688;28;20041;-79
2022/12/14 09:23:31;;;;;;;92.70;32.78;;;-3.80;99.90;;;;;;5052627;28;20091;-79
2022/12/14 09:26:12;;;;;;;80.78;33.63;;;-3.70;99.90;;;;;;5052685;28;20052;-79
2022/12/14 09:28:39;;;;;;;84.40;35.20;;;-3.60;99.90;;;;;;5052635;28;20545;-79
2022/12/14 09:31:09;;;;;;;98.45;37.40;;;-3.40;99.90;;;;;;5052460;28;20073;-80
2022/12/14 09:33:35;;;;;;;97.30;36.47;;;-3.30;99.90;;;;;;5054075;28;20055;-80
2022/12/14 09:36:17;;;;;;;86.55;33.65;;;-3.20;99.90;;;;;;5052648;28;20037;-80
2022/12/14 09:38:44;;;;;;;77.65;32.00;;;-3.10;99.90;;;;;;5052722;28;20048;-79
2022/12/14 09:41:24;;;;;;;78.57;30.90;;;-3.00;99.90;;;;;;5047455;28;20053;-80
2022/12/14 09:44:13;;;;;;;74.53;27.45;;;-2.80;99.90;;;;;;5041574;28;20079;-79
2022/12/14 09:46:53;;;;;;;75.55;30.95;;;-2.70;99.90;;;;;;5033885;28;20049;-80
2022/12/14 09:49:41;;;;;;;85.13;31.58;;;-2.70;99.90;;;;;;5033647;28;20076;-79
2022/12/14 09:52:15;;;;;;;83.22;31.35;;;-2.60;99.90;;;;;;5040271;28;20040;-79
2022/12/14 09:54:43;;;;;;;81.88;31.88;;;-2.50;99.90;;;;;;5052174;28;20048;-79
2022/12/14 09:57:35;;;;;;;80.78;30.17;;;-2.30;99.90;;;;;;5053716;28;20071;-79
2022/12/14 10:00:01;;;;;;;84.18;30.90;;;-2.20;99.90;;;;;;5053653;28;20052;-79
2022/12/14 10:02:49;;;;;;;81.03;29.08;;;-2.10;99.90;;;;;;5052178;28;20049;-78
2022/12/14 10:05:30;;;;;;;74.25;28.88;;;-1.90;99.90;;;;;;5052303;28;20118;-79
2022/12/14 10:08:18;;;;;;;72.30;28.50;;;-1.80;99.90;;;;;;5052004;28;20053;-79
2022/12/14 10:11:05;;;;;;;61.58;26.70;;;-1.80;99.90;;;;;;5052139;28;20094;-79
2022/12/14 10:14:00;;;;;;;67.95;27.45;;;-1.70;99.90;;;;;;5051954;28;20049;-79
2022/12/14 10:16:30;;;;;;;71.35;27.02;;;-1.50;99.90;;;;;;5052288;28;20044;-79
2022/12/14 10:19:11;;;;;;;71.10;25.55;;;-1.40;99.90;;;;;;5051689;28;20053;-78
2022/12/14 10:21:56;;;;;;;68.45;26.05;;;-1.30;99.90;;;;;;5052239;28;20053;-79
2022/12/14 10:24:30;;;;;;;71.40;28.17;;;-1.10;99.90;;;;;;5053097;28;20045;-79
2022/12/14 10:26:55;;;;;;;70.43;27.17;;;-1.10;99.90;;;;;;5052223;28;20053;-79
2022/12/14 10:29:36;;;;;;;70.60;29.55;;;-1.10;99.90;;;;;;5052103;28;20397;-78
2022/12/14 10:32:18;;;;;;;86.65;29.45;;;-1.00;99.90;;;;;;5051790;28;20443;-78
2022/12/14 10:34:43;;;;;;;82.57;30.45;;;-0.90;99.90;;;;;;5052134;28;20049;-78
2022/12/14 10:37:26;;;;;;;79.43;30.45;;;-0.80;99.90;;;;;;5053073;28;20381;-79
2022/12/14 10:40:04;;;;;;;70.93;30.00;;;-0.70;99.90;;;;;;5052056;28;20041;-77
2022/12/14 10:43:01;;;;;;;77.25;29.08;;;-0.70;99.90;;;;;;5051120;28;20068;-77
2022/12/14 10:45:38;;;;;;;74.47;28.50;;;-0.70;99.90;;;;;;5052489;28;20440;-79
2022/12/14 10:48:26;;;;;;;67.90;28.08;;;-0.60;99.90;;;;;;5051031;28;20045;-76
2022/12/14 10:51:03;;;;;;;71.55;29.40;;;-0.60;99.90;;;;;;5051489;28;20048;-76
2022/12/14 10:53:41;;;;;;;80.20;30.27;;;-0.50;99.90;;;;;;5051490;28;20053;-76
2022/12/14 10:56:13;;;;;;;78.10;29.85;;;-0.50;99.90;;;;;;5052011;28;20092;-76
2022/12/14 10:58:38;;;;;;;78.22;28.85;;;-0.40;99.90;;;;;;5051406;28;20090;-76
2022/12/14 11:01:07;;;;;;;69.28;29.40;;;-0.30;99.90;;;;;;5051786;28;20045;-76
2022/12/14 11:03:33;;;;;;;79.32;29.27;;;-0.20;99.90;;;;;;5051633;28;20378;-76
2022/12/14 11:06:14;;;;;;;69.07;28.27;;;-0.10;99.90;;;;;;5052779;28;20080;-76
2022/12/14 11:08:45;;;;;;;65.40;25.23;;;0.00;99.90;;;;;;5051606;28;20099;-76
2022/12/14 11:11:22;;;;;;;63.22;25.27;;;0.00;99.90;;;;;;5051556;28;20072;-76
2022/12/14 11:13:49;;;;;;;68.10;26.20;;;0.10;99.90;;;;;;5051379;28;20045;-76
2022/12/14 11:16:35;;;;;;;71.57;30.33;;;0.10;99.90;;;;;;5051360;28;20389;-76
2022/12/14 11:19:02;;;;;;;71.32;30.17;;;0.20;99.90;;;;;;5052840;28;20037;-76
2022/12/14 11:21:34;;;;;;;74.82;31.10;;;0.10;99.90;;;;;;5051303;28;20056;-76
2022/12/14 11:24:00;;;;;;;73.63;31.00;;;0.20;99.90;;;;;;5043273;28;20057;-76
2022/12/14 11:26:32;;;;;;;75.95;30.63;;;0.30;99.90;;;;;;5041720;28;20053;-76
2022/12/14 11:29:01;;;;;;;87.65;32.17;;;0.20;99.90;;;;;;5041863;28;20091;-76
2022/12/14 11:31:29;;;;;;;74.25;31.30;;;0.30;99.90;;;;;;5043798;28;20080;-76
2022/12/14 11:33:57;;;;;;;73.93;30.05;;;0.20;99.90;;;;;;5053408;28;20072;-76
2022/12/14 11:36:28;;;;;;;78.38;31.42;;;0.20;99.90;;;;;;5045031;28;20091;-76
2022/12/14 11:39:19;;;;;;;71.40;29.98;;;0.10;99.90;;;;;;5055032;28;20128;-74
2022/12/14 11:42:04;;;;;;;79.53;30.38;;;0.00;99.90;;;;;;5054922;28;20049;-74
2022/12/14 11:44:35;;;;;;;69.30;27.98;;;0.10;99.90;;;;;;5054771;28;20473;-74
2022/12/14 11:47:03;;;;;;;66.88;30.15;;;0.30;99.90;;;;;;5054733;28;20056;-74
2022/12/14 11:49:38;;;;;;;69.85;28.85;;;0.30;99.90;;;;;;5054822;28;20072;-74
2022/12/14 11:52:04;;;;;;;69.70;27.63;;;0.30;99.90;;;;;;5054551;28;20106;-74
2022/12/14 11:54:34;;;;;;;65.05;27.85;;;0.30;99.90;;;;;;5055898;28;20037;-76
2022/12/14 11:57:07;;;;;;;70.82;29.10;;;0.40;99.90;;;;;;5054266;28;20080;-76
2022/12/14 11:59:38;;;;;;;64.20;27.77;;;0.40;99.90;;;;;;5054631;28;20545;-75
2022/12/14 12:02:17;;;;;;;65.78;27.75;;;0.40;99.90;;;;;;5055507;28;20041;-75
2022/12/14 12:04:50;;;;;;;63.85;29.77;;;0.40;99.90;;;;;;5055792;28;20037;-75
2022/12/14 12:07:30;;;;;;;71.82;28.42;;;0.40;99.90;;;;;;5054509;28;20045;-75
2022/12/14 12:10:11;;;;;;;68.97;28.17;;;0.50;99.90;;;;;;5054158;28;20094;-75
2022/12/14 12:12:46;;;;;;;66.22;28.42;;;0.40;99.90;;;;;;5053987;28;20147;-75
2022/12/14 12:15:17;;;;;;;88.43;36.85;;;0.50;99.90;;;;;;5053969;28;20408;-75
2022/12/14 12:17:45;;;;;;;109.00;48.83;;;0.50;99.90;;;;;;5054002;28;20053;-75
2022/12/14 12:20:25;;;;;;;84.20;40.50;;;0.40;99.90;;;;;;5053997;28;20049;-75
2022/12/14 12:22:55;;;;;;;78.55;32.60;;;0.50;99.90;;;;;;5053875;28;20060;-75
2022/12/14 12:25:23;;;;;;;77.53;32.83;;;0.50;99.90;;;;;;5055358;28;20135;-75
2022/12/14 12:28:07;;;;;;;80.95;34.45;;;0.40;99.90;;;;;;5053802;28;20045;-75
2022/12/14 12:30:39;;;;;;;64.38;27.95;;;0.50;99.90;;;;;;5053774;28;20052;-75
2022/12/14 12:33:19;;;;;;;62.13;29.95;;;0.50;99.90;;;;;;5053683;28;20098;-74
2022/12/14 12:35:44;;;;;;;78.28;31.20;;;0.60;99.90;;;;;;5053681;28;20481;-74
2022/12/14 12:38:35;;;;;;;66.75;28.92;;;0.40;99.90;;;;;;5055099;28;20048;-75
2022/12/14 12:41:26;;;;;;;61.28;26.77;;;0.50;99.90;;;;;;5053611;28;20132;-76
2022/12/14 12:43:59;;;;;;;63.90;27.67;;;0.50;99.90;;;;;;5053775;28;20075;-76
2022/12/14 12:46:32;;;;;;;59.33;27.30;;;0.50;99.90;;;;;;5054776;28;20049;-76
2022/12/14 12:49:05;;;;;;;69.82;31.13;;;0.50;99.90;;;;;;5054693;28;20095;-77
2022/12/14 12:51:45;;;;;;;60.28;28.10;;;0.50;99.90;;;;;;5053649;28;20099;-75
2022/12/14 12:54:17;;;;;;;57.30;24.23;;;0.50;99.90;;;;;;5053368;28;20056;-76
2022/12/14 12:56:52;;;;;;;53.20;25.17;;;0.50;99.90;;;;;;5054686;28;20477;-75
2022/12/14 12:59:47;;;;;;;55.40;26.45;;;0.50;99.90;;;;;;5053239;28;20045;-75
2022/12/14 13:02:55;;;;;;;59.78;23.85;;;0.60;99.90;;;;;;5053421;28;20088;-75